Time;durP1;ratioP1;P1;durP2;ratioP2;P2;SDS_P1;SDS_P2;PMS_P1;PMS_P2;Temp;Humidity;BMP_temperature;BMP_pressure;BME280_temperature;BME280_humidity;BME280_pressure;Samples;Min_cycle;Max_cycle;Signal;HPM_P1;HPM_P2
2023/02/11 00:02:36;;;;;;;16.45;5.97;;;16.00;61.50;;;;;;4224311;27;20055;-60
2023/02/11 00:05:19;;;;;;;13.35;5.20;;;16.00;61.50;;;;;;4225816;28;20054;-60
2023/02/11 00:07:59;;;;;;;15.00;4.95;;;16.00;62.50;;;;;;4223363;27;20053;-60
2023/02/11 00:10:40;;;;;;;13.07;5.40;;;15.90;61.60;;;;;;4226798;27;20051;-60
2023/02/11 00:13:22;;;;;;;15.32;5.63;;;15.80;61.90;;;;;;4226153;28;20051;-60
2023/02/11 00:16:07;;;;;;;13.57;5.95;;;15.80;62.30;;;;;;4226300;28;20173;-61
2023/02/11 00:18:51;;;;;;;19.00;5.43;;;15.80;62.50;;;;;;4208109;28;20051;-61
2023/02/11 00:21:34;;;;;;;12.60;5.10;;;15.80;62.50;;;;;;4209484;28;20055;-61
2023/02/11 00:24:15;;;;;;;18.27;5.85;;;15.80;62.40;;;;;;4208832;28;20051;-60
2023/02/11 00:26:56;;;;;;;16.38;5.97;;;15.80;62.30;;;;;;4209492;28;20181;-60
2023/02/11 00:29:37;;;;;;;18.50;5.70;;;15.90;62.40;;;;;;4207174;28;20051;-60
2023/02/11 00:32:18;;;;;;;;;;;15.90;62.30;;;;;;4226191;27;20517;-61
2023/02/11 00:34:59;;;;;;;12.13;4.57;;;15.90;62.40;;;;;;4214250;28;20291;-60
2023/02/11 00:37:42;;;;;;;15.60;5.78;;;15.80;62.50;;;;;;4224910;28;20058;-60
2023/02/11 00:40:23;;;;;;;20.25;5.82;;;15.90;62.50;;;;;;4225627;28;20084;-60
2023/02/11 00:43:04;;;;;;;22.83;5.20;;;16.00;62.30;;;;;;4225715;28;20092;-60
2023/02/11 00:45:45;;;;;;;14.15;5.68;;;16.00;62.10;;;;;;4210940;27;20534;-60
2023/02/11 00:48:26;;;;;;;19.95;5.43;;;16.10;62.80;;;;;;4209701;28;20811;-60
2023/02/11 00:51:08;;;;;;;18.42;5.07;;;16.10;61.80;;;;;;4225825;27;20497;-60
2023/02/11 00:53:50;;;;;;;16.77;6.25;;;16.10;61.80;;;;;;4225347;28;20047;-60
2023/02/11 00:56:31;;;;;;;14.35;5.28;;;16.10;61.90;;;;;;4210506;28;20054;-60
2023/02/11 00:59:12;;;;;;;15.93;5.60;;;16.10;62.00;;;;;;4226011;27;20398;-58
2023/02/11 01:01:53;;;;;;;14.85;5.00;;;16.10;62.00;;;;;;4225946;28;20055;-60
2023/02/11 01:04:34;;;;;;;16.30;5.80;;;16.10;61.90;;;;;;4214884;27;20055;-60
2023/02/11 01:07:15;;;;;;;13.93;5.35;;;16.20;62.90;;;;;;4222788;28;20124;-60
2023/02/11 01:09:57;;;;;;;14.35;5.63;;;16.20;61.80;;;;;;4221651;28;20112;-71
2023/02/11 01:12:41;;;;;;;13.88;5.57;;;16.30;61.50;;;;;;4192241;28;20414;-71
2023/02/11 01:15:24;;;;;;;17.97;6.20;;;16.30;62.30;;;;;;4192193;28;20343;-70
2023/02/11 01:18:05;;;;;;;17.55;6.07;;;16.30;61.30;;;;;;4190543;28;20221;-71
2023/02/11 01:20:45;;;;;;;15.65;5.57;;;16.30;61.60;;;;;;4215152;28;20062;-60
2023/02/11 01:23:26;;;;;;;17.58;6.28;;;16.30;61.70;;;;;;4222485;28;20066;-60
2023/02/11 01:26:08;;;;;;;14.13;6.45;;;16.40;61.40;;;;;;4225181;28;20047;-60
2023/02/11 01:28:49;;;;;;;20.60;6.75;;;16.40;61.30;;;;;;4209758;28;20100;-60
2023/02/11 01:31:31;;;;;;;15.15;5.75;;;16.40;61.30;;;;;;4223445;28;20043;-60
2023/02/11 01:34:14;;;;;;;13.90;6.30;;;16.40;61.30;;;;;;4219381;28;20042;-60
2023/02/11 01:36:58;;;;;;;14.73;6.18;;;16.40;61.30;;;;;;4195826;28;20071;-61
2023/02/11 01:39:41;;;;;;;16.17;6.78;;;16.40;61.30;;;;;;4208784;28;20055;-60
2023/02/11 01:42:24;;;;;;;15.77;6.10;;;16.40;61.30;;;;;;4207021;28;20059;-60
2023/02/11 01:45:42;;;;;;;20.98;6.13;;;16.40;61.40;;;;;;4190764;28;20202;-62
2023/02/11 01:48:28;;;;;;;16.48;6.03;;;16.40;61.30;;;;;;4192178;28;20059;-60
2023/02/11 01:51:13;;;;;;;20.92;7.32;;;16.50;61.40;;;;;;4202908;28;20051;-61
2023/02/11 02:00:04;;;;;;;15.43;6.60;;;16.60;60.90;;;;;;4210074;28;20062;-60
2023/02/11 02:03:01;;;;;;;16.65;6.45;;;16.60;60.80;;;;;;4221520;28;20094;-60
2023/02/11 02:05:51;;;;;;;17.85;6.72;;;16.60;61.80;;;;;;4222810;28;20054;-60
2023/02/11 02:08:38;;;;;;;22.23;7.90;;;16.50;60.90;;;;;;4224243;28;20051;-62
2023/02/11 02:11:19;;;;;;;16.02;7.15;;;16.50;61.20;;;;;;4224017;28;20382;-60
2023/02/11 02:14:00;;;;;;;11.73;6.77;;;16.50;61.60;;;;;;4224561;28;20050;-60
2023/02/11 02:16:42;;;;;;;12.52;6.43;;;16.40;61.40;;;;;;4221067;28;20319;-61
2023/02/11 02:19:59;;;;;;;14.38;6.40;;;16.30;61.70;;;;;;4210044;28;20047;-71
2023/02/11 02:23:13;;;;;;;17.63;6.55;;;16.30;62.00;;;;;;4225063;28;20229;-71
2023/02/11 02:26:20;;;;;;;18.75;6.78;;;16.30;62.40;;;;;;4221102;28;20051;-71
2023/02/11 02:29:40;;;;;;;15.95;6.75;;;16.30;62.20;;;;;;4223502;28;20061;-71
2023/02/11 02:32:34;;;;;;;15.82;7.13;;;16.40;61.80;;;;;;4220370;28;20497;-71
2023/02/11 02:35:24;;;;;;;12.40;6.47;;;16.60;61.50;;;;;;4207476;28;20181;-70
2023/02/11 02:38:11;;;;;;;18.55;6.68;;;16.60;61.10;;;;;;4227347;27;20059;-71
2023/02/11 02:40:56;;;;;;;16.92;6.45;;;16.70;60.90;;;;;;4227651;28;20050;-72
2023/02/11 02:43:41;;;;;;;17.95;7.10;;;16.60;60.80;;;;;;4212240;28;20432;-72
2023/02/11 02:46:23;;;;;;;16.08;7.10;;;16.60;60.90;;;;;;4228017;27;20169;-72
2023/02/11 02:49:12;;;;;;;15.75;6.78;;;16.50;61.20;;;;;;4228135;28;20616;-72
2023/02/11 02:52:12;;;;;;;18.23;7.63;;;16.40;61.40;;;;;;4197278;28;20521;-72
2023/02/11 02:55:21;;;;;;;15.65;7.13;;;16.30;61.80;;;;;;4210562;28;20189;-72
2023/02/11 02:58:19;;;;;;;12.68;7.38;;;16.20;62.30;;;;;;4209607;28;20043;-72
2023/02/11 03:01:06;;;;;;;14.65;7.03;;;16.10;63.50;;;;;;4223718;28;20420;-70
2023/02/11 03:03:54;;;;;;;16.17;7.30;;;16.00;63.20;;;;;;4212130;28;20631;-70
2023/02/11 03:06:46;;;;;;;14.13;6.80;;;16.00;63.50;;;;;;4210336;28;20048;-71
2023/02/11 03:09:32;;;;;;;19.15;7.90;;;16.10;63.30;;;;;;4207775;28;20150;-66
2023/02/11 03:12:14;;;;;;;17.42;7.78;;;16.30;62.90;;;;;;4210806;28;20247;-71
2023/02/11 03:14:55;;;;;;;14.15;7.00;;;16.40;62.40;;;;;;4227399;27;20055;-71
2023/02/11 03:17:39;;;;;;;12.57;6.88;;;16.50;61.90;;;;;;4227431;27;20047;-70
2023/02/11 03:20:22;;;;;;;15.15;7.93;;;16.60;61.70;;;;;;4224053;27;20055;-71
2023/02/11 03:23:12;;;;;;;20.42;8.45;;;16.60;61.60;;;;;;4210742;28;20181;-71
2023/02/11 03:25:58;;;;;;;13.38;7.38;;;16.70;61.50;;;;;;4210609;28;20486;-71
2023/02/11 03:28:45;;;;;;;19.52;7.22;;;16.70;61.20;;;;;;4226745;27;20066;-71
2023/02/11 03:31:34;;;;;;;19.05;8.43;;;16.70;61.10;;;;;;4226939;27;20124;-70
2023/02/11 03:34:18;;;;;;;16.48;7.97;;;16.80;61.10;;;;;;4226141;28;20088;-71
2023/02/11 03:37:03;;;;;;;14.52;8.32;;;16.90;60.90;;;;;;4226202;27;20058;-71
2023/02/11 03:39:51;;;;;;;16.63;8.80;;;16.90;60.70;;;;;;4226843;27;20046;-71
2023/02/11 03:42:37;;;;;;;16.70;8.80;;;16.90;60.70;;;;;;4227409;27;20070;-71
2023/02/11 03:45:22;;;;;;;13.27;7.90;;;16.90;60.70;;;;;;4225386;27;20192;-71
2023/02/11 03:48:08;;;;;;;15.35;8.73;;;16.90;60.90;;;;;;4226286;28;20056;-70
2023/02/11 03:50:52;;;;;;;15.80;8.90;;;16.80;61.00;;;;;;4210130;28;20055;-71
2023/02/11 03:53:34;;;;;;;18.83;8.20;;;16.80;61.30;;;;;;4208995;28;20059;-70
2023/02/11 03:56:20;;;;;;;13.63;8.70;;;16.80;61.20;;;;;;4209921;28;20066;-71
2023/02/11 03:59:01;;;;;;;15.32;9.23;;;16.90;61.00;;;;;;4218961;27;20049;-72
2023/02/11 04:01:42;;;;;;;17.40;9.63;;;16.90;60.90;;;;;;4219270;27;20120;-70
2023/02/11 04:04:22;;;;;;;15.67;8.57;;;16.90;60.90;;;;;;4209919;28;20284;-71
2023/02/11 04:07:03;;;;;;;14.38;8.77;;;16.80;61.80;;;;;;4208629;28;20096;-71
2023/02/11 04:09:44;;;;;;;23.20;10.13;;;16.80;61.20;;;;;;4217210;28;20054;-70
2023/02/11 04:12:26;;;;;;;21.65;10.95;;;16.80;61.40;;;;;;4226515;27;20050;-71
2023/02/11 04:15:08;;;;;;;15.85;9.25;;;16.80;61.30;;;;;;4225170;28;20088;-71
2023/02/11 04:17:49;;;;;;;17.02;10.50;;;16.90;61.20;;;;;;4221370;27;20501;-71
2023/02/11 04:20:30;;;;;;;16.30;9.60;;;16.80;61.20;;;;;;4224309;27;20116;-71
2023/02/11 04:23:10;;;;;;;15.65;9.88;;;16.80;61.40;;;;;;4226833;27;20116;-71
2023/02/11 04:25:52;;;;;;;18.75;10.07;;;16.70;61.50;;;;;;4226741;28;20047;-71
2023/02/11 04:28:35;;;;;;;15.10;9.48;;;16.80;61.60;;;;;;4209131;28;20215;-71
2023/02/11 04:31:16;;;;;;;15.93;9.88;;;16.80;61.60;;;;;;4209755;28;20117;-71
2023/02/11 04:33:57;;;;;;;20.15;11.40;;;16.80;61.60;;;;;;4206721;28;20584;-71
2023/02/11 04:36:37;;;;;;;21.33;10.50;;;16.80;61.60;;;;;;4208997;28;20051;-71
2023/02/11 04:39:19;;;;;;;19.13;10.82;;;16.80;61.60;;;;;;4214006;28;20280;-71
2023/02/11 04:42:00;;;;;;;19.10;11.02;;;16.80;61.60;;;;;;4209436;28;20056;-71
2023/02/11 04:44:42;;;;;;;22.80;11.48;;;16.80;61.60;;;;;;4210383;28;20055;-71
2023/02/11 04:47:23;;;;;;;19.42;10.57;;;16.80;61.50;;;;;;4226289;27;20055;-70
2023/02/11 04:50:04;;;;;;;16.17;10.18;;;16.80;61.50;;;;;;4209428;28;20067;-71
2023/02/11 04:52:45;;;;;;;15.27;9.80;;;16.70;61.60;;;;;;4207726;28;20098;-70
2023/02/11 04:55:26;;;;;;;16.38;9.20;;;16.70;61.90;;;;;;4219523;28;20047;-71
2023/02/11 04:58:07;;;;;;;13.53;9.20;;;16.70;62.30;;;;;;4225484;27;20059;-71
2023/02/11 05:00:49;;;;;;;16.98;10.45;;;16.70;62.20;;;;;;4208068;28;20058;-71
2023/02/11 05:03:30;;;;;;;20.08;10.23;;;16.70;62.20;;;;;;4223623;28;20051;-74
2023/02/11 05:06:11;;;;;;;18.13;10.90;;;16.70;62.10;;;;;;4224975;28;20051;-72
2023/02/11 05:08:53;;;;;;;20.00;11.45;;;16.70;62.20;;;;;;4224364;28;20059;-70
2023/02/11 05:11:35;;;;;;;20.27;10.27;;;16.70;63.00;;;;;;4225521;28;20058;-72
2023/02/11 05:14:16;;;;;;;18.20;10.40;;;16.70;62.10;;;;;;4209633;28;20305;-71
2023/02/11 05:16:59;;;;;;;17.77;11.45;;;16.70;61.90;;;;;;4225744;28;20062;-70
2023/02/11 05:19:41;;;;;;;17.88;10.05;;;16.70;62.00;;;;;;4224152;27;20066;-71
2023/02/11 05:22:22;;;;;;;14.73;9.60;;;16.70;62.20;;;;;;4225898;27;20053;-71
2023/02/11 05:25:04;;;;;;;16.83;10.70;;;16.70;62.40;;;;;;4225695;28;20047;-71
2023/02/11 05:27:45;;;;;;;18.40;11.57;;;16.70;62.40;;;;;;4192100;28;20118;-71
2023/02/11 05:30:26;;;;;;;20.35;11.52;;;16.70;62.30;;;;;;4222492;28;20062;-70
2023/02/11 05:33:08;;;;;;;20.30;11.80;;;16.70;62.40;;;;;;4225738;28;20189;-71
2023/02/11 05:35:49;;;;;;;17.63;10.57;;;16.70;62.40;;;;;;4209800;28;20089;-71
2023/02/11 05:38:30;;;;;;;19.80;12.30;;;16.70;62.40;;;;;;4207443;28;20043;-71
2023/02/11 05:41:13;;;;;;;15.38;11.18;;;16.70;62.40;;;;;;4207018;28;20462;-71
2023/02/11 05:43:53;;;;;;;19.88;11.43;;;16.70;62.40;;;;;;4192110;28;20169;-72
2023/02/11 05:46:34;;;;;;;16.60;10.90;;;16.70;62.50;;;;;;4207742;28;20169;-60
2023/02/11 05:49:18;;;;;;;21.20;11.52;;;16.60;62.80;;;;;;4214771;28;20522;-60
2023/02/11 05:51:59;;;;;;;16.02;10.73;;;16.60;62.90;;;;;;4225387;28;20635;-60
2023/02/11 05:54:39;;;;;;;17.20;11.17;;;16.60;63.00;;;;;;4219900;28;20170;-60
2023/02/11 05:57:20;;;;;;;17.23;11.38;;;16.50;63.10;;;;;;4218751;28;20288;-60
2023/02/11 06:00:01;;;;;;;19.45;12.00;;;16.50;63.50;;;;;;4224842;28;20058;-60
2023/02/11 06:02:52;;;;;;;19.55;11.93;;;16.50;63.60;;;;;;4224280;28;20402;-60
2023/02/11 06:05:34;;;;;;;21.55;11.75;;;16.60;63.40;;;;;;4216780;28;20084;-60
2023/02/11 06:08:15;;;;;;;19.00;10.52;;;16.60;63.10;;;;;;4223903;28;20054;-60
2023/02/11 06:10:56;;;;;;;16.30;10.45;;;16.60;63.00;;;;;;4225509;28;20062;-60
2023/02/11 06:13:37;;;;;;;18.60;10.45;;;16.70;63.10;;;;;;4227850;28;20054;-60
2023/02/11 06:16:18;;;;;;;16.67;10.50;;;16.60;63.20;;;;;;4194816;28;20043;-60
2023/02/11 06:18:59;;;;;;;18.80;10.57;;;16.60;63.20;;;;;;4214520;28;21146;-61
2023/02/11 06:21:41;;;;;;;19.58;10.57;;;16.70;63.20;;;;;;4211360;28;20078;-60
2023/02/11 06:24:24;;;;;;;14.95;9.15;;;16.70;63.00;;;;;;4210261;28;20178;-60
2023/02/11 06:27:25;;;;;;;14.70;10.40;;;16.70;63.10;;;;;;4194697;28;20104;-60
2023/02/11 06:30:07;;;;;;;14.98;9.63;;;16.70;63.20;;;;;;4207788;28;20125;-61
2023/02/11 06:32:49;;;;;;;13.65;9.00;;;16.80;62.90;;;;;;4210864;28;20051;-61
2023/02/11 06:35:32;;;;;;;17.55;10.18;;;16.90;62.60;;;;;;4205586;28;20114;-60
2023/02/11 06:38:14;;;;;;;16.52;9.40;;;16.90;62.50;;;;;;4194765;28;20427;-61
2023/02/11 06:40:55;;;;;;;14.25;9.63;;;16.90;62.40;;;;;;4211126;28;20066;-61
2023/02/11 06:43:35;;;;;;;16.00;9.97;;;16.80;62.60;;;;;;4211477;28;20043;-61
2023/02/11 06:46:17;;;;;;;15.23;8.95;;;16.70;62.70;;;;;;4211109;28;20347;-61
2023/02/11 06:48:58;;;;;;;16.42;8.80;;;16.70;63.00;;;;;;4214058;27;20074;-60
2023/02/11 06:51:39;;;;;;;16.30;9.55;;;16.60;63.10;;;;;;4226770;27;20039;-60
2023/02/11 06:54:21;;;;;;;16.95;9.07;;;16.60;64.00;;;;;;4209775;28;20078;-60
2023/02/11 06:57:02;;;;;;;14.88;8.93;;;16.60;63.50;;;;;;4194401;28;20506;-61
2023/02/11 06:59:43;;;;;;;15.27;9.38;;;16.60;63.70;;;;;;4202996;28;20096;-61
2023/02/11 07:02:24;;;;;;;14.68;9.70;;;16.60;63.70;;;;;;4211278;28;20120;-61
2023/02/11 07:05:06;;;;;;;14.30;10.60;;;16.70;63.40;;;;;;4202383;27;20177;-60
2023/02/11 07:07:47;;;;;;;14.93;9.68;;;16.70;63.30;;;;;;4210776;28;20079;-60
2023/02/11 07:10:29;;;;;;;16.40;10.45;;;16.70;63.30;;;;;;4224641;28;20049;-62
2023/02/11 07:13:10;;;;;;;14.80;10.40;;;16.60;63.40;;;;;;4222287;27;20512;-60
2023/02/11 07:15:51;;;;;;;16.40;10.00;;;16.60;63.70;;;;;;4210558;28;20433;-61
2023/02/11 07:18:33;;;;;;;15.30;10.43;;;16.50;63.90;;;;;;4224416;27;20058;-61
2023/02/11 07:21:17;;;;;;;11.90;9.13;;;16.50;64.30;;;;;;4226245;27;20746;-61
2023/02/11 07:23:58;;;;;;;15.07;9.25;;;16.50;64.10;;;;;;4224191;28;20047;-61
2023/02/11 07:26:41;;;;;;;15.10;10.63;;;16.60;64.00;;;;;;4227670;27;20054;-61
2023/02/11 07:29:21;;;;;;;16.15;9.88;;;16.60;64.30;;;;;;4225146;27;20059;-61
2023/02/11 07:32:02;;;;;;;16.17;10.23;;;16.60;64.60;;;;;;4227030;27;20436;-61
2023/02/11 07:34:44;;;;;;;15.77;10.10;;;16.60;64.80;;;;;;4211854;28;20117;-61
2023/02/11 07:37:25;;;;;;;;;;;16.60;64.60;;;;;;4200693;27;20790;-61
2023/02/11 07:40:06;;;;;;;17.55;9.63;;;16.60;64.80;;;;;;4226881;27;20499;-60
2023/02/11 07:42:49;;;;;;;13.07;9.30;;;16.50;64.70;;;;;;4221381;27;20109;-60
2023/02/11 07:45:29;;;;;;;14.88;9.57;;;16.50;64.80;;;;;;4224413;28;20051;-61
2023/02/11 07:48:10;;;;;;;17.08;8.88;;;16.50;65.00;;;;;;4211311;28;20460;-60
2023/02/11 07:50:51;;;;;;;14.57;9.63;;;16.40;65.10;;;;;;4218312;27;20054;-61
2023/02/11 07:53:32;;;;;;;19.45;10.07;;;16.50;65.00;;;;;;4225595;27;20046;-61
2023/02/11 07:56:15;;;;;;;12.77;9.18;;;16.50;64.90;;;;;;4226300;28;20043;-61
2023/02/11 07:59:01;;;;;;;15.15;10.05;;;16.50;64.80;;;;;;4222123;27;20107;-61
2023/02/11 08:01:41;;;;;;;15.10;9.40;;;16.50;65.00;;;;;;4225060;27;20587;-61
2023/02/11 08:04:22;;;;;;;21.02;9.60;;;16.50;65.00;;;;;;4211358;27;20063;-60
2023/02/11 08:07:03;;;;;;;15.07;9.07;;;16.60;64.60;;;;;;4225162;27;20646;-60
2023/02/11 08:09:45;;;;;;;15.00;10.02;;;16.60;64.30;;;;;;4227002;27;20092;-71
2023/02/11 08:12:25;;;;;;;11.95;8.98;;;16.70;64.20;;;;;;4206593;28;20093;-71
2023/02/11 08:15:09;;;;;;;14.20;9.75;;;16.70;64.00;;;;;;4211064;28;20059;-71
2023/02/11 08:17:50;;;;;;;15.40;9.70;;;16.70;64.00;;;;;;4213637;28;20055;-71
2023/02/11 08:20:31;;;;;;;19.25;10.25;;;16.60;64.00;;;;;;4208899;28;20177;-71
2023/02/11 08:23:12;;;;;;;17.17;9.68;;;16.60;64.30;;;;;;4209577;28;20288;-71
2023/02/11 08:25:53;;;;;;;16.88;8.40;;;16.60;64.50;;;;;;4215743;28;20054;-70
2023/02/11 08:28:35;;;;;;;14.13;9.13;;;16.60;64.20;;;;;;4225900;27;20402;-68
2023/02/11 08:31:19;;;;;;;14.65;8.70;;;16.70;64.00;;;;;;4209300;28;20558;-69
2023/02/11 08:34:01;;;;;;;13.23;8.85;;;16.80;63.70;;;;;;4208026;28;20124;-69
2023/02/11 08:36:43;;;;;;;13.57;8.57;;;16.90;63.50;;;;;;4222957;27;20055;-69
2023/02/11 08:39:24;;;;;;;16.63;8.52;;;16.90;63.30;;;;;;4224917;28;20546;-69
2023/02/11 08:42:04;;;;;;;12.40;8.07;;;16.90;63.20;;;;;;4225476;28;20054;-69
2023/02/11 08:44:46;;;;;;;13.77;7.95;;;16.90;63.30;;;;;;4225519;27;20088;-69
2023/02/11 08:47:28;;;;;;;12.32;8.13;;;16.80;63.50;;;;;;4220182;27;20050;-69
2023/02/11 08:50:09;;;;;;;12.25;8.23;;;16.90;63.50;;;;;;4210418;28;20046;-69
2023/02/11 08:52:51;;;;;;;10.38;6.97;;;16.90;63.30;;;;;;4224500;28;20100;-70
2023/02/11 08:55:32;;;;;;;10.38;7.78;;;17.00;63.20;;;;;;4218613;27;20059;-69
2023/02/11 08:58:13;;;;;;;12.30;7.68;;;17.00;63.20;;;;;;4214701;28;20418;-69
2023/02/11 09:00:54;;;;;;;14.25;8.45;;;16.90;63.10;;;;;;4208894;28;20604;-69
2023/02/11 09:03:37;;;;;;;14.27;7.07;;;16.90;63.40;;;;;;4208293;28;20075;-70
2023/02/11 09:06:19;;;;;;;14.43;7.70;;;16.80;63.60;;;;;;4198449;28;20051;-70
2023/02/11 09:09:00;;;;;;;;;;;16.70;63.90;;;;;;4215640;27;20059;-69
2023/02/11 09:11:43;;;;;;;9.80;6.53;;;16.60;64.20;;;;;;4222241;28;19930;-70
2023/02/11 09:14:24;;;;;;;11.20;7.18;;;16.50;64.50;;;;;;4224246;28;20180;-70
2023/02/11 09:17:05;;;;;;;13.55;6.32;;;16.40;64.90;;;;;;4220657;28;20758;-61
2023/02/11 09:19:48;;;;;;;14.35;6.65;;;16.30;65.20;;;;;;4225558;28;20062;-60
2023/02/11 09:22:28;;;;;;;14.55;7.03;;;16.30;65.60;;;;;;4214968;28;20108;-63
2023/02/11 09:25:09;;;;;;;10.80;6.40;;;16.20;65.70;;;;;;4210033;28;20055;-68
2023/02/11 09:27:52;;;;;;;10.50;5.80;;;16.10;66.00;;;;;;4204471;28;20465;-68
2023/02/11 09:30:33;;;;;;;13.93;6.65;;;16.00;66.40;;;;;;4225357;28;20089;-68
2023/02/11 09:33:14;;;;;;;10.80;5.97;;;15.90;66.60;;;;;;4224583;28;20073;-69
2023/02/11 09:36:00;;;;;;;12.43;6.13;;;15.90;66.90;;;;;;4223987;28;20058;-69
2023/02/11 09:38:41;;;;;;;17.55;6.15;;;15.80;67.10;;;;;;4225373;28;20046;-69
2023/02/11 09:41:33;;;;;;;13.75;5.72;;;15.80;67.40;;;;;;4223857;28;20058;-67
2023/02/11 09:44:19;;;;;;;11.88;5.60;;;15.70;67.50;;;;;;4192678;28;20522;-69
2023/02/11 09:47:03;;;;;;;9.88;5.82;;;15.70;67.80;;;;;;4200809;28;20047;-69
2023/02/11 09:49:48;;;;;;;18.00;6.88;;;15.60;68.00;;;;;;4211356;28;20146;-68
2023/02/11 09:52:37;;;;;;;14.95;6.78;;;15.60;68.30;;;;;;4211698;28;20051;-68
2023/02/11 09:55:21;;;;;;;11.70;5.82;;;15.70;68.20;;;;;;4227606;27;20057;-67
2023/02/11 09:58:05;;;;;;;12.55;5.50;;;15.80;68.00;;;;;;4211932;28;20059;-69
2023/02/11 10:00:54;;;;;;;13.52;5.30;;;15.80;67.70;;;;;;4220807;28;20624;-69
2023/02/11 10:04:07;;;;;;;15.00;5.82;;;15.80;67.50;;;;;;4211853;28;20063;-69
2023/02/11 10:06:52;;;;;;;13.18;5.35;;;15.80;67.40;;;;;;4171874;28;20056;-66
2023/02/11 10:09:59;;;;;;;15.00;5.90;;;15.80;67.40;;;;;;4203229;28;20046;-69
2023/02/11 10:12:58;;;;;;;9.50;5.22;;;15.80;67.40;;;;;;4211521;28;20120;-69
2023/02/11 10:15:51;;;;;;;9.63;5.10;;;15.80;68.50;;;;;;4211220;28;20046;-70
2023/02/11 10:18:56;;;;;;;18.27;5.32;;;15.80;67.90;;;;;;4219477;28;20493;-70
2023/02/11 10:21:45;;;;;;;10.23;5.78;;;15.80;67.80;;;;;;4222556;27;20124;-63
2023/02/11 10:24:28;;;;;;;10.63;5.13;;;15.90;67.40;;;;;;4216022;27;20549;-63
2023/02/11 10:27:16;;;;;;;10.23;4.90;;;16.10;66.80;;;;;;4212908;28;20193;-63
2023/02/11 10:30:02;;;;;;;14.20;5.22;;;16.30;66.10;;;;;;4224822;27;20066;-63
2023/02/11 10:32:47;;;;;;;9.07;5.10;;;16.50;65.30;;;;;;4209425;28;20133;-63
2023/02/11 10:35:28;;;;;;;13.50;4.82;;;16.70;64.70;;;;;;4210887;28;20056;-63
2023/02/11 10:38:10;;;;;;;9.63;4.88;;;16.90;63.90;;;;;;4210519;28;20058;-63
2023/02/11 10:40:51;;;;;;;10.57;4.75;;;17.10;63.30;;;;;;4226090;27;20045;-63
2023/02/11 10:43:35;;;;;;;9.68;4.50;;;17.30;62.60;;;;;;4221772;27;20047;-62
2023/02/11 10:46:22;;;;;;;14.77;5.43;;;17.50;62.10;;;;;;4209757;28;20093;-63
2023/02/11 10:49:03;;;;;;;14.25;4.75;;;17.50;61.50;;;;;;4210836;28;20051;-63
2023/02/11 10:51:44;;;;;;;17.35;4.93;;;17.60;61.40;;;;;;4209481;28;20043;-62
2023/02/11 10:54:25;;;;;;;12.98;3.92;;;17.50;61.40;;;;;;4209066;28;20054;-64
2023/02/11 10:57:07;;;;;;;14.60;3.88;;;17.50;61.60;;;;;;4210181;28;20047;-63
2023/02/11 10:59:55;;;;;;;11.18;4.22;;;17.50;61.80;;;;;;4210502;28;20560;-63
2023/02/11 11:02:42;;;;;;;11.98;4.03;;;17.40;61.90;;;;;;4219784;28;20067;-63
2023/02/11 11:05:29;;;;;;;15.15;4.07;;;17.40;62.30;;;;;;4212049;28;20145;-65
2023/02/11 11:08:11;;;;;;;10.75;3.92;;;17.30;62.40;;;;;;4227156;27;20047;-64
2023/02/11 11:11:03;;;;;;;13.45;3.80;;;17.40;62.40;;;;;;4226390;28;20216;-64
2023/02/11 11:13:56;;;;;;;17.98;5.50;;;17.40;62.30;;;;;;4225763;27;20066;-64
2023/02/11 11:16:51;;;;;;;12.98;5.07;;;17.50;62.60;;;;;;4227218;27;20139;-62
2023/02/11 11:19:32;;;;;;;16.65;5.53;;;17.50;62.20;;;;;;4212469;28;20067;-63
2023/02/11 11:22:21;;;;;;;18.67;4.78;;;17.60;62.10;;;;;;4227143;27;20050;-63
2023/02/11 11:25:02;;;;;;;17.13;4.30;;;17.60;62.00;;;;;;4226386;27;20046;-63
2023/02/11 11:27:49;;;;;;;31.00;5.97;;;17.70;61.90;;;;;;4226470;27;20046;-63
2023/02/11 11:30:38;;;;;;;15.43;4.78;;;17.70;61.80;;;;;;4226768;27;20045;-63
2023/02/11 11:33:24;;;;;;;9.75;3.75;;;17.60;61.80;;;;;;4227232;27;20069;-63
2023/02/11 11:36:08;;;;;;;11.27;3.63;;;17.60;62.10;;;;;;4225672;28;20078;-63
2023/02/11 11:38:52;;;;;;;12.45;5.13;;;17.50;62.10;;;;;;4227205;27;20063;-64
2023/02/11 11:41:34;;;;;;;15.52;4.20;;;17.50;62.40;;;;;;4226703;27;20051;-63
2023/02/11 11:44:24;;;;;;;13.55;4.10;;;17.50;62.40;;;;;;4226181;27;20059;-63
2023/02/11 11:47:21;;;;;;;7.90;3.05;;;17.50;62.60;;;;;;4220112;28;20181;-63
2023/02/11 11:50:25;;;;;;;16.23;5.55;;;17.40;62.70;;;;;;4226675;27;20105;-63
2023/02/11 11:53:10;;;;;;;14.93;4.20;;;17.30;62.90;;;;;;4226558;27;20055;-63
2023/02/11 11:55:59;;;;;;;8.85;3.13;;;17.30;63.30;;;;;;4226007;27;20047;-63
2023/02/11 11:58:40;;;;;;;16.33;5.78;;;17.30;63.50;;;;;;4225478;27;20050;-64
2023/02/11 12:01:34;;;;;;;12.02;3.60;;;17.40;63.30;;;;;;4210670;28;20047;-63
2023/02/11 12:04:47;;;;;;;15.48;3.88;;;17.40;63.00;;;;;;4209650;28;20484;-64
2023/02/11 12:07:44;;;;;;;17.67;5.60;;;17.50;62.80;;;;;;4226082;27;20374;-62
2023/02/11 12:10:38;;;;;;;16.13;4.45;;;17.50;62.80;;;;;;4224389;28;20062;-62
2023/02/11 12:13:37;;;;;;;33.15;4.18;;;17.40;62.90;;;;;;4225727;27;20050;-62
2023/02/11 12:16:30;;;;;;;42.20;5.65;;;17.30;63.20;;;;;;4225828;27;20546;-62
2023/02/11 12:19:48;;;;;;;36.47;5.25;;;17.30;63.90;;;;;;4211643;28;20478;-62
2023/02/11 12:22:41;;;;;;;33.10;6.22;;;17.30;63.90;;;;;;4211968;27;20043;-61
2023/02/11 12:25:34;;;;;;;29.85;4.13;;;17.40;64.10;;;;;;4222225;28;20167;-62
2023/02/11 12:28:27;;;;;;;12.40;3.33;;;17.40;64.00;;;;;;4216907;28;20050;-62
2023/02/11 12:31:21;;;;;;;10.85;3.85;;;17.40;64.00;;;;;;4225403;28;20055;-62
2023/02/11 12:34:23;;;;;;;94.40;8.75;;;17.40;64.10;;;;;;4221610;28;20059;-61
2023/02/11 12:37:14;;;;;;;12.02;3.22;;;17.40;63.90;;;;;;4220529;28;20039;-62
2023/02/11 12:40:03;;;;;;;33.95;5.25;;;17.50;63.60;;;;;;4225362;27;20055;-61
2023/02/11 12:43:18;;;;;;;32.65;6.00;;;17.50;63.30;;;;;;4223401;27;20176;-62
2023/02/11 12:46:13;;;;;;;17.73;4.05;;;17.50;63.20;;;;;;4208201;28;20150;-62
2023/02/11 12:49:13;;;;;;;15.10;4.88;;;17.50;63.40;;;;;;4221991;27;20197;-62
2023/02/11 12:52:12;;;;;;;19.17;3.90;;;17.40;63.50;;;;;;4223812;27;21047;-62
2023/02/11 12:54:59;;;;;;;23.63;4.53;;;17.30;63.80;;;;;;4220266;28;20053;-62
2023/02/11 12:57:41;;;;;;;16.38;5.20;;;17.20;64.10;;;;;;4216670;28;20054;-62
2023/02/11 13:00:25;;;;;;;10.32;3.28;;;17.10;64.50;;;;;;4221697;28;20563;-62
2023/02/11 13:03:13;;;;;;;11.23;3.45;;;17.00;64.70;;;;;;4224538;28;20092;-62
2023/02/11 13:05:58;;;;;;;14.48;3.90;;;16.90;65.00;;;;;;4222906;27;20078;-62
2023/02/11 13:08:44;;;;;;;44.20;7.07;;;16.80;65.40;;;;;;4218791;28;20059;-62
2023/02/11 13:11:30;;;;;;;24.67;4.25;;;16.70;65.90;;;;;;4225573;27;20054;-62
2023/02/11 13:14:16;;;;;;;12.45;3.75;;;16.70;66.10;;;;;;4222119;28;20055;-62
2023/02/11 13:16:57;;;;;;;14.00;3.65;;;16.80;65.90;;;;;;4212644;28;20102;-62
2023/02/11 13:19:41;;;;;;;;;;;16.80;66.00;;;;;;4218039;27;20055;-62
2023/02/11 13:22:27;;;;;;;16.98;3.22;;;16.80;65.80;;;;;;4221448;28;19927;-61
2023/02/11 13:25:19;;;;;;;11.98;2.70;;;16.80;65.80;;;;;;4223905;28;20113;-62
2023/02/11 13:28:12;;;;;;;18.10;4.35;;;16.90;65.70;;;;;;4224579;28;20509;-62
2023/02/11 13:31:01;;;;;;;9.65;2.90;;;16.90;65.70;;;;;;4223945;28;20058;-62
2023/02/11 13:33:44;;;;;;;19.20;3.25;;;16.90;65.80;;;;;;4225110;28;20055;-62
2023/02/11 13:36:26;;;;;;;7.78;3.30;;;16.90;65.80;;;;;;4219022;28;20050;-63
2023/02/11 13:39:19;;;;;;;50.97;5.90;;;16.90;65.50;;;;;;4223378;28;20050;-62
2023/02/11 13:42:03;;;;;;;18.40;3.83;;;17.00;65.30;;;;;;4224514;28;20616;-62
2023/02/11 13:44:47;;;;;;;10.82;3.35;;;17.10;64.90;;;;;;4224835;28;20411;-62
2023/02/11 13:47:32;;;;;;;8.68;2.65;;;17.10;65.50;;;;;;4225210;28;20046;-62
2023/02/11 13:50:23;;;;;;;14.77;3.38;;;17.20;64.30;;;;;;4225251;28;20054;-61
2023/02/11 13:53:06;;;;;;;10.77;3.25;;;17.20;64.30;;;;;;4224846;28;20136;-64
2023/02/11 13:55:49;;;;;;;26.25;3.47;;;17.10;64.40;;;;;;4221934;28;20054;-62
2023/02/11 13:58:38;;;;;;;18.23;4.05;;;17.10;64.60;;;;;;4211352;28;20055;-62
2023/02/11 14:11:43;;;;;;;13.02;3.97;;;16.70;65.70;;;;;;4223262;28;20042;-62
2023/02/11 14:14:25;;;;;;;12.80;2.88;;;16.60;66.00;;;;;;4203437;28;20047;-62
2023/02/11 14:17:30;;;;;;;14.02;2.95;;;16.60;66.50;;;;;;4219043;28;20659;-62
2023/02/11 14:20:43;;;;;;;21.30;3.00;;;16.60;66.60;;;;;;4219734;28;20513;-62
2023/02/11 14:23:37;;;;;;;32.28;3.85;;;16.50;66.70;;;;;;4151519;28;20052;-69
2023/02/11 14:26:31;;;;;;;18.48;3.75;;;16.50;66.80;;;;;;4223895;28;20101;-71